Terminal Aerodrome Forecast
Issued by NWS

Home | Current Version | Previous Version | Text Only | Print | Product List | Glossary On
Versions: 1 2 3 4 5 6 7 8 9 10 11 12 13
368
FTAK31 PAJN 201722
TAFAYA
TAF
PAYA 201722Z 2018/2118 08007KT P6SM OVC050 WS010/07040KT
     FM210300 06004KT P6SM VCSH SCT030 BKN050 OVC070 WS010/06040KT
     FM211200 08005KT P6SM BKN050
      AMD LTD TO CLD VIS AND WIND=

USA.gov is the U.S. government's official web portal to all federal, state and local government web resources and services.